Time;durP1;ratioP1;P1;durP2;ratioP2;P2;SDS_P1;SDS_P2;PMS_P1;PMS_P2;Temp;Humidity;BMP_temperature;BMP_pressure;BME280_temperature;BME280_humidity;BME280_pressure;Samples;Min_cycle;Max_cycle;Signal;HPM_P1;HPM_P2
2021/11/09 00:04:38;;;;;;;14.15;10.70;;;;;;;;;;10283348;28;20491;-64
2021/11/09 00:09:56;;;;;;;18.25;11.73;;;;;;;;;;10286829;28;20414;-62
2021/11/09 00:14:55;;;;;;;16.83;11.35;;;;;;;;;;10277118;28;20454;-64
2021/11/09 00:19:55;;;;;;;20.23;13.98;;;;;;;;;;10276312;28;20053;-65
2021/11/09 00:24:53;;;;;;;20.33;11.65;;;;;;;;;;10276623;28;20073;-64
2021/11/09 00:29:51;;;;;;;14.40;11.00;;;;;;;;;;10287607;28;20077;-64
2021/11/09 00:34:50;;;;;;;14.48;11.18;;;;;;;;;;10275804;28;20080;-64
2021/11/09 00:39:49;;;;;;;14.38;10.73;;;;;;;;;;10275539;28;20067;-64
2021/11/09 00:44:48;;;;;;;13.23;10.48;;;;;;;;;;10280861;28;20483;-65
2021/11/09 00:49:46;;;;;;;13.73;10.73;;;;;;;;;;10275629;28;20490;-64
2021/11/09 00:54:45;;;;;;;13.40;10.73;;;;;;;;;;10289386;28;20079;-62
2021/11/09 00:59:44;;;;;;;15.52;11.73;;;;;;;;;;10293664;28;20083;-64
2021/11/09 01:04:42;;;;;;;19.65;12.15;;;;;;;;;;10290293;28;20080;-64
2021/11/09 01:09:41;;;;;;;11.63;10.10;;;;;;;;;;10285286;28;20076;-64
2021/11/09 01:14:39;;;;;;;13.43;11.13;;;;;;;;;;10285872;28;20076;-63
2021/11/09 01:19:39;;;;;;;13.13;10.50;;;;;;;;;;10286046;28;20489;-63
2021/11/09 01:24:38;;;;;;;13.50;10.55;;;;;;;;;;10284841;28;20084;-65
2021/11/09 01:29:36;;;;;;;13.25;10.40;;;;;;;;;;10285516;28;20076;-63
2021/11/09 01:34:35;;;;;;;14.05;11.90;;;;;;;;;;10274280;28;20072;-64
2021/11/09 01:39:35;;;;;;;15.57;11.73;;;;;;;;;;10274222;28;20052;-64
2021/11/09 01:44:34;;;;;;;14.98;11.80;;;;;;;;;;10274317;28;20084;-64
2021/11/09 01:49:32;;;;;;;16.10;11.18;;;;;;;;;;10274033;28;20047;-64
2021/11/09 01:54:31;;;;;;;14.00;10.93;;;;;;;;;;10287030;28;20087;-64
2021/11/09 01:59:32;;;;;;;16.90;12.05;;;;;;;;;;10274115;28;20076;-65
2021/11/09 02:04:31;;;;;;;21.65;12.20;;;;;;;;;;10273749;28;20068;-64
2021/11/09 02:09:29;;;;;;;32.70;19.60;;;;;;;;;;10272891;28;20052;-65
2021/11/09 02:14:28;;;;;;;22.70;15.05;;;;;;;;;;10273918;28;20084;-64
2021/11/09 02:19:28;;;;;;;12.60;10.40;;;;;;;;;;10273261;28;20061;-65
2021/11/09 02:24:27;;;;;;;23.38;13.48;;;;;;;;;;10273379;28;20068;-65
2021/11/09 02:29:26;;;;;;;15.63;11.80;;;;;;;;;;10271740;28;20061;-64
2021/11/09 02:34:24;;;;;;;15.82;11.00;;;;;;;;;;10273153;28;20080;-64
2021/11/09 02:39:22;;;;;;;25.83;16.25;;;;;;;;;;10282702;28;20506;-64
2021/11/09 02:44:26;;;;;;;24.65;17.48;;;;;;;;;;10279544;28;20044;-64
2021/11/09 02:49:27;;;;;;;16.15;13.18;;;;;;;;;;10280699;28;20521;-63
2021/11/09 02:54:28;;;;;;;16.80;13.02;;;;;;;;;;10306776;28;20080;-64
2021/11/09 02:59:45;;;;;;;15.88;11.38;;;;;;;;;;10280788;28;20091;-64
2021/11/09 03:05:00;;;;;;;17.40;10.88;;;;;;;;;;10279967;28;20056;-64
2021/11/09 03:10:01;;;;;;;13.43;11.07;;;;;;;;;;10280357;28;20084;-64
2021/11/09 03:15:01;;;;;;;14.60;10.77;;;;;;;;;;10290346;28;20080;-64
2021/11/09 03:20:01;;;;;;;13.63;11.55;;;;;;;;;;10290252;28;20088;-64
2021/11/09 03:44:12;;;;;;;15.82;12.93;;;;;;;;;;10279064;28;20041;-64
2021/11/09 03:46:11;;;;;;;13.50;11.40;;;;;;;;;;10278924;28;20049;-63
2021/11/09 03:51:10;;;;;;;14.13;12.10;;;;;;;;;;10298438;28;20060;-63
2021/11/09 03:56:15;;;;;;;13.82;11.45;;;;;;;;;;10295035;28;20068;-65
2021/11/09 04:01:19;;;;;;;11.73;10.52;;;;;;;;;;10278012;28;20421;-65
2021/11/09 04:06:30;;;;;;;14.48;10.45;;;;;;;;;;10277613;28;20529;-64
2021/11/09 04:11:34;;;;;;;14.82;11.18;;;;;;;;;;10277817;28;20175;-64
2021/11/09 04:16:48;;;;;;;20.00;13.10;;;;;;;;;;10277384;28;20092;-64
2021/11/09 04:22:15;;;;;;;18.03;12.33;;;;;;;;;;10276955;28;20045;-64
2021/11/09 04:27:23;;;;;;;12.00;10.63;;;;;;;;;;10277228;28;20050;-64
2021/11/09 04:32:39;;;;;;;18.15;13.52;;;;;;;;;;10279316;28;20497;-64
2021/11/09 05:09:32;;;;;;;13.73;11.57;;;;;;;;;;10274852;28;20528;-64
2021/11/09 05:14:32;;;;;;;15.82;12.60;;;;;;;;;;10274720;28;20525;-64
2021/11/09 05:19:32;;;;;;;14.07;11.85;;;;;;;;;;10274773;28;20552;-64
2021/11/09 05:24:31;;;;;;;11.30;9.52;;;;;;;;;;10274623;28;20083;-65
2021/11/09 05:29:29;;;;;;;14.15;10.23;;;;;;;;;;10290034;28;20515;-64
2021/11/09 05:34:30;;;;;;;16.15;10.50;;;;;;;;;;10291016;28;20096;-64
2021/11/09 05:39:34;;;;;;;14.32;11.18;;;;;;;;;;10284285;28;20064;-64
2021/11/09 05:44:34;;;;;;;16.10;12.20;;;;;;;;;;10279905;28;20065;-64
2021/11/09 05:49:33;;;;;;;18.52;13.93;;;;;;;;;;10288512;28;20068;-64
2021/11/09 05:54:33;;;;;;;14.07;12.50;;;;;;;;;;10281522;28;20080;-65
2021/11/09 05:59:32;;;;;;;16.55;11.00;;;;;;;;;;10272761;28;20077;-64
2021/11/09 06:04:31;;;;;;;11.43;10.02;;;;;;;;;;10284174;28;20479;-65
2021/11/09 06:09:29;;;;;;;13.10;9.80;;;;;;;;;;10288210;28;20102;-65
2021/11/09 06:14:29;;;;;;;18.02;12.30;;;;;;;;;;10284891;28;20102;-65
2021/11/09 06:19:29;;;;;;;15.18;13.43;;;;;;;;;;10288312;28;20068;-65
2021/11/09 06:24:28;;;;;;;12.63;10.52;;;;;;;;;;10281667;28;20080;-65
2021/11/09 06:29:27;;;;;;;12.82;11.30;;;;;;;;;;10292823;28;20474;-64
2021/11/09 06:34:27;;;;;;;16.33;13.40;;;;;;;;;;10289142;28;20080;-65
2021/11/09 06:39:27;;;;;;;15.55;11.90;;;;;;;;;;10279385;28;20064;-65
2021/11/09 06:44:28;;;;;;;20.65;17.23;;;;;;;;;;10291052;28;20144;-65
2021/11/09 06:49:28;;;;;;;14.45;10.05;;;;;;;;;;10289543;28;20056;-65
2021/11/09 06:54:26;;;;;;;11.60;10.35;;;;;;;;;;10287826;28;20083;-64
2021/11/09 06:59:25;;;;;;;12.40;10.65;;;;;;;;;;10280153;28;20071;-58
2021/11/09 07:04:29;;;;;;;13.70;11.27;;;;;;;;;;10287278;28;20064;-59
2021/11/09 07:09:28;;;;;;;14.95;11.15;;;;;;;;;;10297637;28;20134;-58
2021/11/09 07:14:26;;;;;;;19.73;13.48;;;;;;;;;;10294976;28;20069;-58
2021/11/09 07:19:24;;;;;;;18.58;13.98;;;;;;;;;;10277953;28;20068;-58
2021/11/09 07:24:30;;;;;;;21.60;13.85;;;;;;;;;;10278438;28;20076;-59
2021/11/09 07:29:29;;;;;;;11.60;9.30;;;;;;;;;;10276844;28;20566;-60
2021/11/09 07:34:27;;;;;;;14.13;11.82;;;;;;;;;;10275983;28;20095;-58
2021/11/09 07:39:27;;;;;;;16.08;9.98;;;;;;;;;;10288354;28;20478;-59
2021/11/09 07:44:25;;;;;;;13.35;10.77;;;;;;;;;;10280017;28;20083;-59
2021/11/09 07:49:24;;;;;;;15.23;10.48;;;;;;;;;;10281264;28;20066;-58
2021/11/09 07:54:25;;;;;;;10.95;9.50;;;;;;;;;;10280029;28;20083;-59
2021/11/09 07:59:29;;;;;;;16.48;12.93;;;;;;;;;;10276637;28;20465;-59
2021/11/09 08:04:32;;;;;;;11.57;10.40;;;;;;;;;;10285573;28;20080;-60
2021/11/09 08:09:30;;;;;;;13.48;11.68;;;;;;;;;;10286838;28;20057;-57
2021/11/09 08:14:31;;;;;;;18.20;12.52;;;;;;;;;;10290251;28;20112;-58
2021/11/09 08:19:30;;;;;;;13.32;11.80;;;;;;;;;;10303954;28;20083;-59
2021/11/09 08:24:29;;;;;;;14.98;13.38;;;;;;;;;;10275401;28;20450;-59
2021/11/09 08:29:28;;;;;;;13.27;11.38;;;;;;;;;;10275491;28;20081;-58
2021/11/09 08:34:30;;;;;;;18.25;14.30;;;;;;;;;;10275476;28;20084;-59
2021/11/09 08:39:34;;;;;;;15.93;13.27;;;;;;;;;;10274634;28;20071;-59
2021/11/09 08:44:36;;;;;;;17.85;13.82;;;;;;;;;;10286127;28;20079;-59
2021/11/09 08:49:36;;;;;;;17.10;15.32;;;;;;;;;;10274804;28;20072;-58
2021/11/09 08:54:36;;;;;;;19.98;14.45;;;;;;;;;;10274927;28;20076;-56
2021/11/09 09:04:54;;;;;;;18.48;16.58;;;;;;;;;;10285200;28;20068;-58
2021/11/09 09:09:53;;;;;;;19.60;16.77;;;;;;;;;;10273897;28;20060;-56
2021/11/09 09:14:52;;;;;;;16.52;14.35;;;;;;;;;;10273934;28;20756;-59
2021/11/09 09:19:55;;;;;;;16.48;13.20;;;;;;;;;;10285022;28;20075;-58
2021/11/09 09:25:08;;;;;;;14.20;12.57;;;;;;;;;;10273276;28;20076;-59
2021/11/09 09:56:39;;;;;;;15.45;13.20;;;;;;;;;;10282228;28;19970;-60
2021/11/09 10:01:37;;;;;;;13.38;11.80;;;;;;;;;;10282830;28;20041;-60
2021/11/09 10:06:42;;;;;;;16.48;13.13;;;;;;;;;;10281946;28;20068;-60
2021/11/09 10:11:42;;;;;;;16.75;15.15;;;;;;;;;;10282431;28;20068;-59
2021/11/09 10:16:41;;;;;;;21.85;19.52;;;;;;;;;;10289352;28;20068;-60
2021/11/09 10:21:40;;;;;;;29.40;22.60;;;;;;;;;;10280644;28;20076;-60
2021/11/09 10:26:38;;;;;;;25.58;22.38;;;;;;;;;;10283557;28;20418;-60
2021/11/09 10:31:42;;;;;;;20.33;17.52;;;;;;;;;;10279297;28;20171;-59
2021/11/09 10:36:40;;;;;;;16.85;15.15;;;;;;;;;;10282561;28;20525;-59
2021/11/09 10:41:39;;;;;;;15.95;14.25;;;;;;;;;;10290655;28;20072;-60
2021/11/09 10:46:37;;;;;;;19.05;17.00;;;;;;;;;;10312757;28;20083;-59
2021/11/09 10:51:56;;;;;;;14.05;12.35;;;;;;;;;;10290388;28;20068;-60
2021/11/09 10:57:10;;;;;;;15.48;13.15;;;;;;;;;;10310326;28;20095;-60
2021/11/09 11:07:26;;;;;;;25.83;16.35;;;;;;;;;;10290987;28;20079;-60
2021/11/09 11:12:26;;;;;;;24.60;16.27;;;;;;;;;;10301793;28;20076;-59
2021/11/09 11:17:24;;;;;;;11.60;10.32;;;;;;;;;;10282474;28;20068;-60
2021/11/09 11:22:24;;;;;;;12.50;10.65;;;;;;;;;;10278507;28;20518;-59
2021/11/09 11:27:25;;;;;;;22.83;13.00;;;;;;;;;;10284128;28;20463;-59
2021/11/09 11:32:24;;;;;;;11.15;6.45;;;;;;;;;;10290213;28;20094;-60
2021/11/09 11:37:23;;;;;;;9.45;5.88;;;;;;;;;;10280338;28;20106;-60
2021/11/09 11:42:23;;;;;;;9.90;6.50;;;;;;;;;;10282784;28;20441;-60
2021/11/09 11:47:22;;;;;;;17.35;8.10;;;;;;;;;;10288168;28;20064;-60
2021/11/09 11:52:22;;;;;;;9.65;6.93;;;;;;;;;;10289878;28;20079;-60
2021/11/09 11:57:41;;;;;;;28.20;15.95;;;;;;;;;;10280050;28;20080;-58
2021/11/09 12:02:40;;;;;;;14.98;8.02;;;;;;;;;;10279276;28;20457;-60
2021/11/09 12:07:54;;;;;;;8.90;6.75;;;;;;;;;;10280168;28;20060;-59
2021/11/09 12:12:59;;;;;;;11.02;8.48;;;;;;;;;;10298944;28;20072;-60
2021/11/09 12:17:59;;;;;;;11.38;7.70;;;;;;;;;;10275478;28;20083;-60
2021/11/09 12:22:57;;;;;;;13.05;7.75;;;;;;;;;;10280098;28;20076;-60
2021/11/09 12:28:01;;;;;;;22.17;13.05;;;;;;;;;;10290180;28;20503;-60
2021/11/09 12:33:03;;;;;;;9.82;7.28;;;;;;;;;;10294146;28;20083;-60
2021/11/09 12:38:12;;;;;;;10.07;5.45;;;;;;;;;;10277738;28;20077;-60
2021/11/09 12:43:17;;;;;;;18.52;10.02;;;;;;;;;;10285359;28;20076;-60
2021/11/09 12:48:18;;;;;;;13.73;9.27;;;;;;;;;;10287249;28;20084;-60
2021/11/09 12:53:18;;;;;;;21.67;10.10;;;;;;;;;;10275513;28;20107;-61
2021/11/09 12:58:19;;;;;;;25.20;10.32;;;;;;;;;;10273468;28;20095;-61
2021/11/09 13:03:29;;;;;;;18.35;9.10;;;;;;;;;;10281730;28;20536;-61
2021/11/09 13:08:38;;;;;;;9.43;6.15;;;;;;;;;;10283560;28;20064;-60
2021/11/09 13:13:37;;;;;;;9.48;7.65;;;;;;;;;;10284742;28;20064;-61
2021/11/09 13:18:37;;;;;;;13.02;8.93;;;;;;;;;;10289375;28;20073;-60
2021/11/09 13:23:35;;;;;;;29.48;16.90;;;;;;;;;;10282426;28;20064;-60
2021/11/09 13:28:35;;;;;;;8.00;7.18;;;;;;;;;;10278376;28;20486;-60
2021/11/09 13:33:36;;;;;;;16.42;13.77;;;;;;;;;;10281545;28;20134;-68
2021/11/09 13:38:37;;;;;;;12.25;9.27;;;;;;;;;;10285080;28;20505;-65
2021/11/09 13:43:37;;;;;;;8.02;6.95;;;;;;;;;;10276295;28;20080;-67
2021/11/09 13:48:37;;;;;;;9.25;7.07;;;;;;;;;;10280737;28;20072;-67
2021/11/09 13:53:40;;;;;;;8.55;7.38;;;;;;;;;;10286656;28;20106;-66
2021/11/09 13:58:38;;;;;;;6.15;5.47;;;;;;;;;;10290877;28;20069;-68
2021/11/09 14:03:58;;;;;;;36.80;17.52;;;;;;;;;;10283159;28;20072;-67
2021/11/09 14:09:18;;;;;;;19.65;13.18;;;;;;;;;;10288942;28;20076;-68
2021/11/09 14:19:37;;;;;;;16.48;11.43;;;;;;;;;;10281904;28;20083;-67
2021/11/09 14:24:37;;;;;;;11.90;9.43;;;;;;;;;;10282611;28;20068;-67
2021/11/09 14:29:37;;;;;;;31.30;23.08;;;;;;;;;;10273583;28;20072;-68
2021/11/09 14:34:37;;;;;;;15.65;13.77;;;;;;;;;;10290784;28;20083;-67
2021/11/09 14:39:45;;;;;;;14.45;12.95;;;;;;;;;;10291610;28;20067;-67
2021/11/09 14:44:59;;;;;;;17.50;13.50;;;;;;;;;;10294802;28;20073;-67
2021/11/09 14:50:04;;;;;;;14.73;13.13;;;;;;;;;;10290188;28;20081;-68
2021/11/09 14:55:19;;;;;;;20.20;16.70;;;;;;;;;;10301872;28;20048;-69
2021/11/09 15:00:18;;;;;;;26.27;23.47;;;;;;;;;;10291309;28;20068;-68
2021/11/09 15:05:21;;;;;;;44.58;28.23;;;;;;;;;;10294640;28;20092;-67
2021/11/09 15:26:14;;;;;;;18.08;11.88;;;;;;;;;;10296810;28;20083;-67
2021/11/09 15:31:21;;;;;;;36.80;21.38;;;;;;;;;;10288458;28;20135;-68
2021/11/09 15:41:45;;;;;;;27.73;16.98;;;;;;;;;;10256250;28;20517;-65
2021/11/09 15:46:44;;;;;;;38.85;28.08;;;;;;;;;;10287282;28;20048;-67
2021/11/09 15:51:43;;;;;;;26.65;20.85;;;;;;;;;;10290374;28;20072;-67
2021/11/09 15:56:41;;;;;;;32.15;22.80;;;;;;;;;;10277776;28;20088;-68
2021/11/09 16:01:42;;;;;;;26.88;18.98;;;;;;;;;;10278391;28;20061;-67
2021/11/09 16:06:42;;;;;;;34.03;25.92;;;;;;;;;;10303106;28;20099;-67
2021/11/09 16:11:41;;;;;;;18.58;13.93;;;;;;;;;;10285659;28;20048;-67
2021/11/09 16:16:41;;;;;;;35.47;31.67;;;;;;;;;;10285374;28;20081;-67
2021/11/09 16:21:39;;;;;;;27.27;23.67;;;;;;;;;;10278374;28;20073;-67
2021/11/09 16:26:38;;;;;;;35.83;23.23;;;;;;;;;;10279215;28;20069;-68
2021/11/09 16:31:37;;;;;;;25.02;17.15;;;;;;;;;;10276334;28;20061;-68
2021/11/09 16:36:37;;;;;;;13.45;11.60;;;;;;;;;;10278593;28;20067;-68
2021/11/09 16:41:37;;;;;;;17.45;13.38;;;;;;;;;;10281727;28;20143;-68
2021/11/09 16:46:40;;;;;;;16.85;13.15;;;;;;;;;;10298888;28;20068;-67
2021/11/09 16:51:41;;;;;;;26.17;15.52;;;;;;;;;;10280776;28;20065;-68
2021/11/09 16:57:02;;;;;;;43.95;24.90;;;;;;;;;;10275483;28;20072;-68
2021/11/09 18:15:59;;;;;;;28.83;25.23;;;;;;;;;;10297982;28;20094;-68
2021/11/09 18:20:58;;;;;;;14.52;10.63;;;;;;;;;;10293129;28;20072;-65
2021/11/09 18:25:57;;;;;;;21.25;16.52;;;;;;;;;;10301178;28;20068;-66
2021/11/09 18:30:57;;;;;;;46.58;27.05;;;;;;;;;;10293588;28;20087;-67
2021/11/09 18:35:57;;;;;;;90.78;50.65;;;;;;;;;;10290294;28;20068;-68
2021/11/09 18:40:55;;;;;;;35.38;24.95;;;;;;;;;;10289335;28;20075;-66
2021/11/09 18:45:55;;;;;;;42.83;28.40;;;;;;;;;;10295391;28;20544;-69
2021/11/09 18:50:54;;;;;;;34.70;26.40;;;;;;;;;;10292488;28;20453;-66
2021/11/09 18:55:54;;;;;;;112.50;61.08;;;;;;;;;;10303645;28;20069;-67
2021/11/09 19:00:53;;;;;;;31.45;22.25;;;;;;;;;;10294433;28;20084;-66
2021/11/09 19:05:58;;;;;;;27.98;20.08;;;;;;;;;;10297418;28;20509;-66
2021/11/09 19:10:56;;;;;;;14.77;13.18;;;;;;;;;;10293734;28;20076;-67
2021/11/09 19:15:55;;;;;;;26.05;22.13;;;;;;;;;;10289796;28;20069;-67
2021/11/09 19:20:53;;;;;;;19.50;13.35;;;;;;;;;;10292404;28;20128;-66
2021/11/09 19:25:54;;;;;;;10.10;8.23;;;;;;;;;;10285075;28;20517;-66
2021/11/09 19:30:53;;;;;;;7.18;6.10;;;;;;;;;;10280924;28;20104;-67
2021/11/09 19:35:52;;;;;;;9.07;7.43;;;;;;;;;;10285693;28;20508;-67
2021/11/09 19:40:50;;;;;;;11.35;9.13;;;;;;;;;;10292045;28;20073;-66
2021/11/09 19:45:52;;;;;;;13.38;10.02;;;;;;;;;;10294704;28;20076;-67
2021/11/09 19:50:55;;;;;;;14.65;9.70;;;;;;;;;;10282155;28;20080;-66
2021/11/09 19:55:56;;;;;;;14.50;10.70;;;;;;;;;;10296709;28;20077;-67
2021/11/09 20:00:57;;;;;;;14.20;9.30;;;;;;;;;;10300167;28;20084;-67
2021/11/09 20:05:58;;;;;;;6.15;4.68;;;;;;;;;;10294297;28;20072;-66
2021/11/09 20:10:57;;;;;;;7.88;5.43;;;;;;;;;;10307870;28;20064;-67
2021/11/09 20:16:00;;;;;;;8.05;5.97;;;;;;;;;;10289818;28;20071;-67
2021/11/09 20:20:59;;;;;;;7.20;6.28;;;;;;;;;;10285023;28;20411;-67
2021/11/09 20:25:58;;;;;;;11.65;8.82;;;;;;;;;;10292224;28;20064;-66
2021/11/09 20:30:58;;;;;;;7.85;5.90;;;;;;;;;;10299088;28;20071;-67
2021/11/09 20:35:57;;;;;;;9.85;7.93;;;;;;;;;;10278628;28;20065;-65
2021/11/09 20:40:55;;;;;;;6.95;6.07;;;;;;;;;;10309398;28;20481;-67
2021/11/09 20:45:54;;;;;;;7.40;6.68;;;;;;;;;;10313902;28;20072;-67
2021/11/09 20:50:54;;;;;;;42.92;31.73;;;;;;;;;;10295000;28;20074;-67
2021/11/09 20:55:53;;;;;;;29.10;23.75;;;;;;;;;;10311256;28;20481;-66
2021/11/09 21:00:51;;;;;;;28.33;22.45;;;;;;;;;;10291526;28;20502;-66
2021/11/09 21:05:50;;;;;;;28.65;21.65;;;;;;;;;;10282669;28;20080;-66
2021/11/09 21:10:50;;;;;;;34.83;23.80;;;;;;;;;;10285679;28;20072;-67
2021/11/09 21:21:07;;;;;;;17.35;14.18;;;;;;;;;;10308011;28;20521;-67
2021/11/09 21:26:06;;;;;;;25.10;18.00;;;;;;;;;;10302178;28;20068;-66
2021/11/09 21:31:16;;;;;;;30.65;22.75;;;;;;;;;;10290717;28;20077;-66
2021/11/09 21:36:15;;;;;;;37.03;28.42;;;;;;;;;;10280879;28;20461;-69
2021/11/09 21:41:15;;;;;;;21.77;15.88;;;;;;;;;;10290379;28;20072;-66
2021/11/09 21:46:14;;;;;;;23.90;19.30;;;;;;;;;;10284648;28;20707;-66
2021/11/09 21:51:12;;;;;;;20.85;16.27;;;;;;;;;;10287539;28;20127;-67
2021/11/09 21:56:10;;;;;;;13.13;10.68;;;;;;;;;;10288116;28;20072;-67
2021/11/09 22:01:10;;;;;;;16.63;13.88;;;;;;;;;;10291360;28;20540;-67
2021/11/09 22:06:09;;;;;;;10.38;9.15;;;;;;;;;;10290071;28;20047;-65
2021/11/09 22:11:08;;;;;;;16.83;14.32;;;;;;;;;;10287133;28;20075;-67
2021/11/09 22:16:06;;;;;;;14.18;12.32;;;;;;;;;;10296685;28;20072;-67
2021/11/09 22:21:06;;;;;;;12.27;10.98;;;;;;;;;;10316265;28;20515;-67
2021/11/09 22:26:04;;;;;;;12.38;10.18;;;;;;;;;;10314805;28;21138;-67
2021/11/09 22:31:03;;;;;;;13.80;9.63;;;;;;;;;;10286528;28;20516;-67
2021/11/09 22:36:01;;;;;;;13.43;10.70;;;;;;;;;;10297356;28;20491;-66
2021/11/09 22:41:01;;;;;;;12.65;11.27;;;;;;;;;;10315017;28;20072;-67
2021/11/09 22:45:59;;;;;;;15.00;12.63;;;;;;;;;;10327183;28;20060;-67
2021/11/09 22:50:58;;;;;;;18.05;16.10;;;;;;;;;;10300974;28;20080;-67
2021/11/09 22:55:56;;;;;;;25.13;21.20;;;;;;;;;;10294746;28;20033;-66
2021/11/09 23:00:56;;;;;;;14.20;11.20;;;;;;;;;;10279320;28;20083;-67
2021/11/09 23:05:57;;;;;;;14.38;11.20;;;;;;;;;;10280578;28;20084;-67
2021/11/09 23:10:55;;;;;;;10.75;9.23;;;;;;;;;;10280283;28;20045;-67
2021/11/09 23:15:54;;;;;;;12.75;9.93;;;;;;;;;;10280300;28;20041;-68
2021/11/09 23:20:55;;;;;;;28.17;22.38;;;;;;;;;;10283159;28;20198;-66
2021/11/09 23:25:53;;;;;;;19.25;15.98;;;;;;;;;;10279692;28;20057;-66
2021/11/09 23:30:52;;;;;;;16.85;12.57;;;;;;;;;;10301520;28;20445;-67
2021/11/09 23:35:50;;;;;;;42.35;13.35;;;;;;;;;;10297886;28;20541;-66
2021/11/09 23:40:50;;;;;;;38.33;14.70;;;;;;;;;;10279246;28;20081;-66
2021/11/09 23:45:51;;;;;;;25.98;15.30;;;;;;;;;;10279085;28;20507;-67
2021/11/09 23:50:49;;;;;;;30.55;15.38;;;;;;;;;;10278544;28;20084;-65
2021/11/09 23:55:48;;;;;;;37.97;16.08;;;;;;;;;;10289597;28;20041;-67
